sensor_id;sensor_type;location;lat;lon;timestamp;pressure;altitude;pressure_sealevel;temperature;humidity
49377;BME280;35253;34.688;33.040;2023-02-20T00:01:17;101922.53;;;13.03;100.00
49377;BME280;35253;34.688;33.040;2023-02-20T00:03:44;101924.88;;;13.11;100.00
49377;BME280;35253;34.688;33.040;2023-02-20T00:06:09;101921.53;;;13.06;100.00
49377;BME280;35253;34.688;33.040;2023-02-20T00:08:35;101911.81;;;13.03;100.00
49377;BME280;35253;34.688;33.040;2023-02-20T00:11:00;101908.22;;;13.04;100.00
49377;BME280;35253;34.688;33.040;2023-02-20T00:13:26;101915.31;;;13.05;100.00
49377;BME280;35253;34.688;33.040;2023-02-20T00:15:52;101905.91;;;13.16;100.00
49377;BME280;35253;34.688;33.040;2023-02-20T00:18:17;101908.38;;;13.01;100.00
49377;BME280;35253;34.688;33.040;2023-02-20T00:20:43;101908.31;;;13.03;100.00
49377;BME280;35253;34.688;33.040;2023-02-20T00:23:08;101906.47;;;13.03;100.00
49377;BME280;35253;34.688;33.040;2023-02-20T00:25:34;101907.34;;;13.04;100.00
49377;BME280;35253;34.688;33.040;2023-02-20T00:27:59;101897.50;;;13.04;100.00
49377;BME280;35253;34.688;33.040;2023-02-20T00:30:24;101901.34;;;12.99;100.00
49377;BME280;35253;34.688;33.040;2023-02-20T00:32:50;101897.50;;;13.04;100.00
49377;BME280;35253;34.688;33.040;2023-02-20T00:35:17;101895.84;;;13.02;100.00
49377;BME280;35253;34.688;33.040;2023-02-20T00:37:44;101891.28;;;13.04;100.00
49377;BME280;35253;34.688;33.040;2023-02-20T00:40:09;101891.22;;;13.05;100.00
49377;BME280;35253;34.688;33.040;2023-02-20T00:42:35;101894.75;;;13.06;100.00
49377;BME280;35253;34.688;33.040;2023-02-20T00:45:01;101891.88;;;13.11;100.00
49377;BME280;35253;34.688;33.040;2023-02-20T00:47:26;101889.00;;;12.96;100.00
49377;BME280;35253;34.688;33.040;2023-02-20T00:49:52;101887.34;;;12.94;100.00
49377;BME280;35253;34.688;33.040;2023-02-20T00:52:17;101885.38;;;12.97;100.00
49377;BME280;35253;34.688;33.040;2023-02-20T00:54:42;101883.94;;;12.90;100.00
49377;BME280;35253;34.688;33.040;2023-02-20T00:57:08;101878.56;;;12.90;100.00
49377;BME280;35253;34.688;33.040;2023-02-20T00:59:33;101874.97;;;12.91;100.00
49377;BME280;35253;34.688;33.040;2023-02-20T01:01:59;101880.63;;;12.85;100.00
49377;BME280;35253;34.688;33.040;2023-02-20T01:04:24;101879.75;;;12.85;100.00
49377;BME280;35253;34.688;33.040;2023-02-20T01:06:50;101882.34;;;12.86;100.00
49377;BME280;35253;34.688;33.040;2023-02-20T01:09:15;101872.94;;;12.96;100.00
49377;BME280;35253;34.688;33.040;2023-02-20T01:11:41;101875.38;;;13.01;100.00
49377;BME280;35253;34.688;33.040;2023-02-20T01:14:07;101867.03;;;12.90;100.00
49377;BME280;35253;34.688;33.040;2023-02-20T01:16:32;101866.81;;;12.94;100.00
49377;BME280;35253;34.688;33.040;2023-02-20T01:18:58;101859.47;;;12.98;100.00
49377;BME280;35253;34.688;33.040;2023-02-20T01:21:23;101857.34;;;13.04;100.00
49377;BME280;35253;34.688;33.040;2023-02-20T01:23:49;101865.53;;;13.01;100.00
49377;BME280;35253;34.688;33.040;2023-02-20T01:26:14;101849.91;;;13.11;100.00
49377;BME280;35253;34.688;33.040;2023-02-20T01:28:43;101855.47;;;13.06;100.00
49377;BME280;35253;34.688;33.040;2023-02-20T01:31:09;101861.06;;;13.02;100.00
49377;BME280;35253;34.688;33.040;2023-02-20T01:33:34;101847.91;;;12.97;100.00
49377;BME280;35253;34.688;33.040;2023-02-20T01:36:00;101851.03;;;13.05;100.00
49377;BME280;35253;34.688;33.040;2023-02-20T01:38:25;101846.16;;;12.96;100.00
49377;BME280;35253;34.688;33.040;2023-02-20T01:40:51;101848.19;;;12.91;100.00
49377;BME280;35253;34.688;33.040;2023-02-20T01:43:16;101849.22;;;12.89;100.00
49377;BME280;35253;34.688;33.040;2023-02-20T01:45:42;101841.25;;;12.87;100.00
49377;BME280;35253;34.688;33.040;2023-02-20T01:48:18;101847.31;;;12.91;100.00
49377;BME280;35253;34.688;33.040;2023-02-20T01:50:44;101840.09;;;12.93;100.00
49377;BME280;35253;34.688;33.040;2023-02-20T01:53:12;101839.06;;;12.95;100.00
49377;BME280;35253;34.688;33.040;2023-02-20T01:58:14;101845.84;;;13.02;100.00
49377;BME280;35253;34.688;33.040;2023-02-20T02:00:41;101844.28;;;12.98;100.00
49377;BME280;35253;34.688;33.040;2023-02-20T02:03:11;101841.75;;;12.95;100.00
49377;BME280;35253;34.688;33.040;2023-02-20T02:05:38;101834.97;;;12.88;100.00
49377;BME280;35253;34.688;33.040;2023-02-20T02:08:05;101844.13;;;13.01;100.00
49377;BME280;35253;34.688;33.040;2023-02-20T02:13:17;101848.84;;;12.96;100.00
49377;BME280;35253;34.688;33.040;2023-02-20T02:15:42;101845.03;;;12.83;100.00
49377;BME280;35253;34.688;33.040;2023-02-20T02:23:18;101849.25;;;12.70;100.00
49377;BME280;35253;34.688;33.040;2023-02-20T02:37:09;101863.38;;;12.91;100.00
49377;BME280;35253;34.688;33.040;2023-02-20T02:39:44;101857.16;;;12.90;100.00
49377;BME280;35253;34.688;33.040;2023-02-20T02:45:00;101844.28;;;12.98;100.00
49377;BME280;35253;34.688;33.040;2023-02-20T02:47:37;101847.72;;;13.00;100.00
49377;BME280;35253;34.688;33.040;2023-02-20T02:50:52;101844.28;;;12.98;100.00
49377;BME280;35253;34.688;33.040;2023-02-20T02:52:52;101838.13;;;12.96;100.00
49377;BME280;35253;34.688;33.040;2023-02-20T02:55:19;101838.06;;;12.98;100.00
49377;BME280;35253;34.688;33.040;2023-02-20T02:57:45;101839.53;;;13.03;100.00
49377;BME280;35253;34.688;33.040;2023-02-20T03:03:15;101839.53;;;13.03;100.00
49377;BME280;35253;34.688;33.040;2023-02-20T03:05:46;101845.13;;;12.99;100.00
49377;BME280;35253;34.688;33.040;2023-02-20T03:10:46;101846.00;;;12.99;100.00
49377;BME280;35253;34.688;33.040;2023-02-20T03:13:12;101836.72;;;12.89;100.00
49377;BME280;35253;34.688;33.040;2023-02-20T03:15:45;101834.56;;;12.96;100.00
49377;BME280;35253;34.688;33.040;2023-02-20T03:20:44;101836.63;;;12.91;100.00
49377;BME280;35253;34.688;33.040;2023-02-20T03:23:11;101838.75;;;13.01;100.00
49377;BME280;35253;34.688;33.040;2023-02-20T03:25:39;101837.81;;;13.02;100.00
49377;BME280;35253;34.688;33.040;2023-02-20T03:28:10;101838.75;;;13.01;100.00
49377;BME280;35253;34.688;33.040;2023-02-20T03:33:12;101840.09;;;12.93;100.00
49377;BME280;35253;34.688;33.040;2023-02-20T03:35:59;101836.72;;;12.89;100.00
49377;BME280;35253;34.688;33.040;2023-02-20T03:38:46;101844.16;;;12.83;100.00
49377;BME280;35253;34.688;33.040;2023-02-20T03:41:31;101847.25;;;12.92;100.00
49377;BME280;35253;34.688;33.040;2023-02-20T03:44:16;101849.94;;;12.92;100.00
49377;BME280;35253;34.688;33.040;2023-02-20T03:46:43;101841.69;;;12.97;100.00
49377;BME280;35253;34.688;33.040;2023-02-20T03:49:14;101839.06;;;12.95;100.00
49377;BME280;35253;34.688;33.040;2023-02-20T03:51:41;101840.63;;;12.99;100.00
49377;BME280;35253;34.688;33.040;2023-02-20T03:54:07;101844.41;;;12.95;100.00
49377;BME280;35253;34.688;33.040;2023-02-20T03:56:37;101840.81;;;12.96;100.00
49377;BME280;35253;34.688;33.040;2023-02-20T03:59:14;101842.53;;;12.97;100.00
49377;BME280;35253;34.688;33.040;2023-02-20T04:01:42;101847.66;;;12.85;100.00
49377;BME280;35253;34.688;33.040;2023-02-20T04:04:11;101853.00;;;12.85;100.00
49377;BME280;35253;34.688;33.040;2023-02-20T04:06:38;101853.00;;;12.85;100.00
49377;BME280;35253;34.688;33.040;2023-02-20T04:09:11;101856.84;;;12.79;100.00
49377;BME280;35253;34.688;33.040;2023-02-20T04:11:49;101855.31;;;12.74;100.00
49377;BME280;35253;34.688;33.040;2023-02-20T04:14:17;101852.59;;;12.75;100.00
49377;BME280;35253;34.688;33.040;2023-02-20T04:16:44;101862.72;;;12.69;100.00
49377;BME280;35253;34.688;33.040;2023-02-20T04:19:12;101867.06;;;12.71;100.00
49377;BME280;35253;34.688;33.040;2023-02-20T04:21:39;101854.44;;;12.73;100.00
49377;BME280;35253;34.688;33.040;2023-02-20T04:24:13;101865.16;;;12.73;100.00
49377;BME280;35253;34.688;33.040;2023-02-20T04:26:41;101853.75;;;12.70;100.00
49377;BME280;35253;34.688;33.040;2023-02-20T04:29:06;101855.81;;;12.82;100.00
49377;BME280;35253;34.688;33.040;2023-02-20T04:31:32;101855.66;;;12.68;100.00
49377;BME280;35253;34.688;33.040;2023-02-20T04:33:57;101859.41;;;12.63;100.00
49377;BME280;35253;34.688;33.040;2023-02-20T04:36:23;101868.28;;;12.64;100.00
49377;BME280;35253;34.688;33.040;2023-02-20T04:38:49;101876.72;;;12.74;100.00
49377;BME280;35253;34.688;33.040;2023-02-20T04:41:15;101865.75;;;12.80;100.00
49377;BME280;35253;34.688;33.040;2023-02-20T04:43:40;101870.44;;;12.75;100.00
49377;BME280;35253;34.688;33.040;2023-02-20T04:46:06;101868.19;;;12.84;100.00
49377;BME280;35253;34.688;33.040;2023-02-20T04:48:31;101873.53;;;12.84;100.00
49377;BME280;35253;34.688;33.040;2023-02-20T04:50:57;101865.66;;;12.81;100.00
49377;BME280;35253;34.688;33.040;2023-02-20T04:53:22;101868.31;;;12.81;100.00
49377;BME280;35253;34.688;33.040;2023-02-20T04:55:48;101874.97;;;12.91;100.00
49377;BME280;35253;34.688;33.040;2023-02-20T04:58:13;101871.63;;;12.86;100.00
49377;BME280;35253;34.688;33.040;2023-02-20T05:00:39;101868.19;;;12.84;100.00
49377;BME280;35253;34.688;33.040;2023-02-20T05:03:04;101873.38;;;12.87;100.00
49377;BME280;35253;34.688;33.040;2023-02-20T05:05:29;101869.94;;;12.85;100.00
49377;BME280;35253;34.688;33.040;2023-02-20T05:07:56;101873.53;;;12.84;100.00
49377;BME280;35253;34.688;33.040;2023-02-20T05:10:23;101874.97;;;12.91;100.00
49377;BME280;35253;34.688;33.040;2023-02-20T05:12:49;101864.13;;;12.94;100.00
49377;BME280;35253;34.688;33.040;2023-02-20T05:15:14;101873.56;;;13.01;100.00
49377;BME280;35253;34.688;33.040;2023-02-20T05:17:40;101875.94;;;13.07;100.00
49377;BME280;35253;34.688;33.040;2023-02-20T05:20:06;101875.50;;;13.17;100.00
49377;BME280;35253;34.688;33.040;2023-02-20T05:22:32;101874.66;;;13.16;100.00
49377;BME280;35253;34.688;33.040;2023-02-20T05:24:57;101878.16;;;13.17;100.00
49377;BME280;35253;34.688;33.040;2023-02-20T05:27:23;101878.34;;;13.31;100.00
49377;BME280;35253;34.688;33.040;2023-02-20T05:29:50;101886.59;;;13.26;100.00
49377;BME280;35253;34.688;33.040;2023-02-20T05:32:17;101893.47;;;13.32;100.00
49377;BME280;35253;34.688;33.040;2023-02-20T05:34:43;101888.19;;;13.47;100.00
49377;BME280;35253;34.688;33.040;2023-02-20T05:37:09;101893.28;;;13.52;100.00
49377;BME280;35253;34.688;33.040;2023-02-20T05:39:35;101888.41;;;13.43;100.00
49377;BME280;35253;34.688;33.040;2023-02-20T05:42:00;101897.66;;;13.54;100.00
49377;BME280;35253;34.688;33.040;2023-02-20T05:44:26;101901.56;;;13.65;100.00
49377;BME280;35253;34.688;33.040;2023-02-20T05:46:51;101896.47;;;13.60;100.00
49377;BME280;35253;34.688;33.040;2023-02-20T05:49:18;101904.88;;;13.70;100.00
49377;BME280;35253;34.688;33.040;2023-02-20T05:51:44;101905.44;;;13.76;100.00
49377;BME280;35253;34.688;33.040;2023-02-20T05:54:09;101892.06;;;13.92;100.00
49377;BME280;35253;34.688;33.040;2023-02-20T05:56:35;101902.97;;;13.89;100.00
49377;BME280;35253;34.688;33.040;2023-02-20T05:59:00;101903.47;;;13.95;100.00
49377;BME280;35253;34.688;33.040;2023-02-20T06:01:27;101901.84;;;13.93;100.00
49377;BME280;35253;34.688;33.040;2023-02-20T06:03:53;101906.06;;;13.81;100.00
49377;BME280;35253;34.688;33.040;2023-02-20T06:06:19;101913.44;;;13.93;100.00
49377;BME280;35253;34.688;33.040;2023-02-20T06:08:45;101905.84;;;14.02;100.00
49377;BME280;35253;34.688;33.040;2023-02-20T06:11:11;101899.72;;;13.99;100.00
49377;BME280;35253;34.688;33.040;2023-02-20T06:13:43;101902.66;;;14.11;100.00
49377;BME280;35253;34.688;33.040;2023-02-20T06:16:09;101899.91;;;14.12;100.00
49377;BME280;35253;34.688;33.040;2023-02-20T06:18:38;101902.66;;;14.11;100.00
49377;BME280;35253;34.688;33.040;2023-02-20T06:21:10;101891.44;;;14.20;100.00
49377;BME280;35253;34.688;33.040;2023-02-20T06:23:36;101893.31;;;14.18;100.00
49377;BME280;35253;34.688;33.040;2023-02-20T06:26:03;101898.19;;;14.27;100.00
49377;BME280;35253;34.688;33.040;2023-02-20T06:28:28;101894.56;;;14.28;100.00
49377;BME280;35253;34.688;33.040;2023-02-20T06:30:54;101894.09;;;14.37;100.00
49377;BME280;35253;34.688;33.040;2023-02-20T06:33:19;101892.28;;;14.53;100.00
49377;BME280;35253;34.688;33.040;2023-02-20T06:35:45;101895.56;;;14.58;100.00
49377;BME280;35253;34.688;33.040;2023-02-20T06:38:10;101887.78;;;14.69;100.00
49377;BME280;35253;34.688;33.040;2023-02-20T06:40:37;101891.84;;;14.76;100.00
49377;BME280;35253;34.688;33.040;2023-02-20T06:43:02;101890.63;;;14.82;100.00
49377;BME280;35253;34.688;33.040;2023-02-20T06:45:27;101894.06;;;15.00;100.00
49377;BME280;35253;34.688;33.040;2023-02-20T06:47:53;101897.38;;;15.05;100.00
49377;BME280;35253;34.688;33.040;2023-02-20T06:50:18;101895.56;;;15.19;100.00
49377;BME280;35253;34.688;33.040;2023-02-20T06:52:44;101896.59;;;15.32;100.00
49377;BME280;35253;34.688;33.040;2023-02-20T06:55:09;101896.09;;;15.26;100.00
49377;BME280;35253;34.688;33.040;2023-02-20T06:57:35;101893.06;;;15.46;100.00
49377;BME280;35253;34.688;33.040;2023-02-20T07:00:00;101896.38;;;15.51;100.00
49377;BME280;35253;34.688;33.040;2023-02-20T07:02:26;101890.81;;;15.54;100.00
49377;BME280;35253;34.688;33.040;2023-02-20T07:04:51;101892.31;;;15.44;100.00
49377;BME280;35253;34.688;33.040;2023-02-20T07:07:17;101897.09;;;15.39;100.00
49377;BME280;35253;34.688;33.040;2023-02-20T07:09:42;101904.78;;;15.15;100.00
49377;BME280;35253;34.688;33.040;2023-02-20T07:12:07;101885.75;;;15.34;100.00
49377;BME280;35253;34.688;33.040;2023-02-20T07:14:33;101886.50;;;15.36;100.00
49377;BME280;35253;34.688;33.040;2023-02-20T07:16:58;101883.97;;;15.19;100.00
49377;BME280;35253;34.688;33.040;2023-02-20T07:19:24;101892.03;;;15.19;100.00
49377;BME280;35253;34.688;33.040;2023-02-20T07:21:49;101885.94;;;15.31;100.00
49377;BME280;35253;34.688;33.040;2023-02-20T07:24:15;101880.56;;;15.31;100.00
49377;BME280;35253;34.688;33.040;2023-02-20T07:26:40;101879.22;;;15.38;100.00
49377;BME280;35253;34.688;33.040;2023-02-20T07:29:06;101886.50;;;15.22;100.00
49377;BME280;35253;34.688;33.040;2023-02-20T07:31:32;101881.91;;;15.38;100.00
49377;BME280;35253;34.688;33.040;2023-02-20T07:33:57;101877.50;;;15.37;100.00
49377;BME280;35253;34.688;33.040;2023-02-20T07:36:23;101879.81;;;15.43;100.00
49377;BME280;35253;34.688;33.040;2023-02-20T07:38:53;101882.31;;;15.46;100.00
49377;BME280;35253;34.688;33.040;2023-02-20T07:41:19;101873.81;;;15.54;100.00
49377;BME280;35253;34.688;33.040;2023-02-20T07:43:44;101872.91;;;15.69;100.00
49377;BME280;35253;34.688;33.040;2023-02-20T07:46:09;101874.31;;;15.60;100.00
49377;BME280;35253;34.688;33.040;2023-02-20T07:48:35;101877.75;;;15.62;100.00
49377;BME280;35253;34.688;33.040;2023-02-20T07:51:01;101872.00;;;15.54;100.00
49377;BME280;35253;34.688;33.040;2023-02-20T07:53:26;101867.72;;;15.66;100.00
49377;BME280;35253;34.688;33.040;2023-02-20T07:55:52;101872.22;;;15.65;100.00
49377;BME280;35253;34.688;33.040;2023-02-20T07:58:17;101868.81;;;15.48;100.00
49377;BME280;35253;34.688;33.040;2023-02-20T08:00:43;101872.22;;;15.65;100.00
49377;BME280;35253;34.688;33.040;2023-02-20T08:03:08;101863.78;;;15.57;100.00
49377;BME280;35253;34.688;33.040;2023-02-20T08:05:34;101856.84;;;15.53;100.00
49377;BME280;35253;34.688;33.040;2023-02-20T08:07:59;101853.03;;;15.57;100.00
49377;BME280;35253;34.688;33.040;2023-02-20T08:10:25;101856.47;;;15.59;100.00
49377;BME280;35253;34.688;33.040;2023-02-20T08:12:52;101851.16;;;15.58;100.00
49377;BME280;35253;34.688;33.040;2023-02-20T08:15:18;101856.66;;;15.56;100.00
49377;BME280;35253;34.688;33.040;2023-02-20T08:17:43;101852.31;;;15.54;100.00
49377;BME280;35253;34.688;33.040;2023-02-20T08:20:09;101845.22;;;15.53;100.00
49377;BME280;35253;34.688;33.040;2023-02-20T08:22:35;101842.25;;;15.57;100.00
49377;BME280;35253;34.688;33.040;2023-02-20T08:25:01;101840.44;;;15.72;100.00
49377;BME280;35253;34.688;33.040;2023-02-20T08:27:28;101834.88;;;15.89;100.00
49377;BME280;35253;34.688;33.040;2023-02-20T08:29:54;101836.88;;;15.71;100.00
49377;BME280;35253;34.688;33.040;2023-02-20T08:32:19;101834.97;;;15.73;100.00
49377;BME280;35253;34.688;33.040;2023-02-20T08:34:45;101830.53;;;15.72;100.00
49377;BME280;35253;34.688;33.040;2023-02-20T08:37:11;101829.38;;;15.62;100.00
49377;BME280;35253;34.688;33.040;2023-02-20T08:39:36;101822.28;;;15.61;100.00
49377;BME280;35253;34.688;33.040;2023-02-20T08:42:04;101825.16;;;15.72;100.00
49377;BME280;35253;34.688;33.040;2023-02-20T08:44:30;101818.47;;;15.80;100.00
49377;BME280;35253;34.688;33.040;2023-02-20T08:46:55;101811.34;;;15.93;100.00
49377;BME280;35253;34.688;33.040;2023-02-20T08:49:21;101810.38;;;15.94;100.00
49377;BME280;35253;34.688;33.040;2023-02-20T08:51:47;101800.75;;;15.90;100.00
49377;BME280;35253;34.688;33.040;2023-02-20T08:54:14;101785.13;;;15.96;100.00
49377;BME280;35253;34.688;33.040;2023-02-20T08:56:40;101790.78;;;16.06;100.00
49377;BME280;35253;34.688;33.040;2023-02-20T08:59:05;101787.66;;;16.12;100.00
49377;BME280;35253;34.688;33.040;2023-02-20T09:01:31;101776.63;;;16.16;100.00
49377;BME280;35253;34.688;33.040;2023-02-20T09:03:56;101784.59;;;16.18;100.00
49377;BME280;35253;34.688;33.040;2023-02-20T09:06:21;101773.22;;;16.27;100.00
49377;BME280;35253;34.688;33.040;2023-02-20T09:08:50;101772.78;;;16.47;100.00
49377;BME280;35253;34.688;33.040;2023-02-20T09:11:15;101774.28;;;16.51;100.00
49377;BME280;35253;34.688;33.040;2023-02-20T09:13:44;101767.31;;;16.49;100.00
49377;BME280;35253;34.688;33.040;2023-02-20T09:16:11;101755.88;;;16.45;100.00
49377;BME280;35253;34.688;33.040;2023-02-20T09:18:37;101748.41;;;16.63;100.00
49377;BME280;35253;34.688;33.040;2023-02-20T09:21:02;101750.28;;;16.48;100.00
49377;BME280;35253;34.688;33.040;2023-02-20T09:23:28;101745.84;;;16.61;100.00
49377;BME280;35253;34.688;33.040;2023-02-20T09:25:53;101739.19;;;16.80;100.00
49377;BME280;35253;34.688;33.040;2023-02-20T09:28:19;101741.34;;;16.75;100.00
49377;BME280;35253;34.688;33.040;2023-02-20T09:30:45;101731.22;;;16.91;100.00
49377;BME280;35253;34.688;33.040;2023-02-20T09:33:10;101728.22;;;16.95;100.00
49377;BME280;35253;34.688;33.040;2023-02-20T09:35:36;101722.09;;;17.06;100.00
49377;BME280;35253;34.688;33.040;2023-02-20T09:38:01;101724.25;;;17.01;100.00
49377;BME280;35253;34.688;33.040;2023-02-20T09:40:27;101722.44;;;17.14;100.00
49377;BME280;35253;34.688;33.040;2023-02-20T09:45:25;101702.06;;;17.10;100.00
49377;BME280;35253;34.688;33.040;2023-02-20T09:52:58;101686.84;;;16.96;100.00
49377;BME280;35253;34.688;33.040;2023-02-20T09:55:25;101679.53;;;17.11;100.00
49377;BME280;35253;34.688;33.040;2023-02-20T09:57:54;101681.47;;;17.09;100.00
49377;BME280;35253;34.688;33.040;2023-02-20T10:00:24;101678.66;;;17.23;100.00
49377;BME280;35253;34.688;33.040;2023-02-20T10:02:56;101673.59;;;17.19;100.00
49377;BME280;35253;34.688;33.040;2023-02-20T10:05:27;101678.31;;;17.40;100.00
49377;BME280;35253;34.688;33.040;2023-02-20T10:07:53;101673.47;;;17.33;100.00
49377;BME280;35253;34.688;33.040;2023-02-20T10:10:20;101659.47;;;17.28;100.00
49377;BME280;35253;34.688;33.040;2023-02-20T10:12:55;101651.03;;;17.45;100.00
49377;BME280;35253;34.688;33.040;2023-02-20T10:23:28;101649.72;;;17.38;100.00
49377;BME280;35253;34.688;33.040;2023-02-20T10:25:58;101640.28;;;17.32;100.00
49377;BME280;35253;34.688;33.040;2023-02-20T10:28:24;101634.44;;;17.26;100.00
49377;BME280;35253;34.688;33.040;2023-02-20T10:33:23;101622.38;;;17.31;100.00
49377;BME280;35253;34.688;33.040;2023-02-20T10:38:19;101618.81;;;17.31;100.00
49377;BME280;35253;34.688;33.040;2023-02-20T10:41:29;101617.88;;;17.55;100.00
49377;BME280;35253;34.688;33.040;2023-02-20T10:46:28;101601.56;;;17.70;100.00
49377;BME280;35253;34.688;33.040;2023-02-20T10:48:55;101600.03;;;17.78;100.00
49377;BME280;35253;34.688;33.040;2023-02-20T10:51:27;101586.88;;;17.74;100.00
49377;BME280;35253;34.688;33.040;2023-02-20T10:54:37;101576.78;;;17.65;100.00
49377;BME280;35253;34.688;33.040;2023-02-20T10:59:15;101573.34;;;17.63;100.00
49377;BME280;35253;34.688;33.040;2023-02-20T11:01:43;101569.22;;;17.93;100.00
49377;BME280;35253;34.688;33.040;2023-02-20T11:04:20;101561.13;;;18.28;100.00
49377;BME280;35253;34.688;33.040;2023-02-20T11:06:53;101565.31;;;17.97;100.00
49377;BME280;35253;34.688;33.040;2023-02-20T11:09:21;101552.69;;;17.98;100.00
49377;BME280;35253;34.688;33.040;2023-02-20T11:11:47;101559.56;;;18.48;100.00
49377;BME280;35253;34.688;33.040;2023-02-20T11:16:46;101548.72;;;18.94;100.00
49377;BME280;35253;34.688;33.040;2023-02-20T11:19:17;101546.25;;;19.02;100.00
49377;BME280;35253;34.688;33.040;2023-02-20T11:21:45;101540.94;;;19.34;100.00
49377;BME280;35253;34.688;33.040;2023-02-20T11:24:18;101528.16;;;18.69;100.00
49377;BME280;35253;34.688;33.040;2023-02-20T11:26:44;101531.03;;;18.68;100.00
49377;BME280;35253;34.688;33.040;2023-02-20T11:29:12;101524.50;;;18.13;100.00
49377;BME280;35253;34.688;33.040;2023-02-20T11:31:39;101514.19;;;18.18;100.00
49377;BME280;35253;34.688;33.040;2023-02-20T11:34:11;101523.34;;;18.51;100.00
49377;BME280;35253;34.688;33.040;2023-02-20T11:36:44;101528.56;;;18.98;100.00
49377;BME280;35253;34.688;33.040;2023-02-20T11:39:18;101507.00;;;18.52;100.00
49377;BME280;35253;34.688;33.040;2023-02-20T11:41:45;101517.28;;;18.82;100.00
49377;BME280;35253;34.688;33.040;2023-02-20T11:44:19;101513.81;;;18.80;100.00
49377;BME280;35253;34.688;33.040;2023-02-20T11:46:45;101525.59;;;19.01;100.00
49377;BME280;35253;34.688;33.040;2023-02-20T11:49:27;101509.41;;;18.68;100.00
49377;BME280;35253;34.688;33.040;2023-02-20T11:52:05;101497.88;;;18.55;100.00
49377;BME280;35253;34.688;33.040;2023-02-20T11:54:31;101494.53;;;18.62;100.00
49377;BME280;35253;34.688;33.040;2023-02-20T11:59:32;101505.97;;;18.99;100.00
49377;BME280;35253;34.688;33.040;2023-02-20T12:02:20;101516.28;;;18.94;100.00
49377;BME280;35253;34.688;33.040;2023-02-20T12:07:54;101510.09;;;19.14;100.00
49377;BME280;35253;34.688;33.040;2023-02-20T12:12:57;101500.25;;;19.13;100.00
49377;BME280;35253;34.688;33.040;2023-02-20T12:15:24;101490.94;;;19.17;100.00
49377;BME280;35253;34.688;33.040;2023-02-20T12:18:04;101492.34;;;19.55;100.00
49377;BME280;35253;34.688;33.040;2023-02-20T12:20:35;101483.69;;;19.07;100.00
49377;BME280;35253;34.688;33.040;2023-02-20T12:31:17;101464.34;;;18.57;100.00
49377;BME280;35253;34.688;33.040;2023-02-20T12:34:07;101460.53;;;18.71;100.00
49377;BME280;35253;34.688;33.040;2023-02-20T12:36:39;101466.41;;;18.76;100.00
49377;BME280;35253;34.688;33.040;2023-02-20T12:39:16;101463.69;;;18.98;100.00
49377;BME280;35253;34.688;33.040;2023-02-20T12:52:31;101444.53;;;18.23;100.00
49377;BME280;35253;34.688;33.040;2023-02-20T12:55:02;101452.25;;;18.28;100.00
49377;BME280;35253;34.688;33.040;2023-02-20T12:59:59;101445.66;;;18.21;100.00
49377;BME280;35253;34.688;33.040;2023-02-20T13:05:00;101443.81;;;18.32;100.00
49377;BME280;35253;34.688;33.040;2023-02-20T13:12:42;101424.16;;;18.19;100.00
49377;BME280;35253;34.688;33.040;2023-02-20T13:20:31;101426.59;;;18.22;100.00
49377;BME280;35253;34.688;33.040;2023-02-20T13:28:12;101430.81;;;18.37;100.00
49377;BME280;35253;34.688;33.040;2023-02-20T13:30:42;101429.56;;;18.41;100.00
49377;BME280;35253;34.688;33.040;2023-02-20T13:38:11;101433.94;;;17.98;100.00
49377;BME280;35253;34.688;33.040;2023-02-20T13:40:38;101425.66;;;17.77;100.00
49377;BME280;35253;34.688;33.040;2023-02-20T13:43:23;101414.91;;;17.99;100.00
49377;BME280;35253;34.688;33.040;2023-02-20T13:48:43;101415.09;;;18.31;100.00
49377;BME280;35253;34.688;33.040;2023-02-20T13:56:44;101421.06;;;18.13;100.00
49377;BME280;35253;34.688;33.040;2023-02-20T13:59:11;101425.63;;;18.12;100.00
49377;BME280;35253;34.688;33.040;2023-02-20T14:04:22;101431.94;;;17.54;100.00
49377;BME280;35253;34.688;33.040;2023-02-20T14:06:48;101418.75;;;17.62;100.00
49377;BME280;35253;34.688;33.040;2023-02-20T14:09:15;101409.91;;;17.60;100.00
49377;BME280;35253;34.688;33.040;2023-02-20T14:11:41;101416.22;;;17.72;100.00
49377;BME280;35253;34.688;33.040;2023-02-20T14:14:28;101397.97;;;17.51;100.00
49377;BME280;35253;34.688;33.040;2023-02-20T14:16:52;101404.81;;;17.44;100.00
49377;BME280;35253;34.688;33.040;2023-02-20T14:19:27;101406.75;;;17.42;100.00
49377;BME280;35253;34.688;33.040;2023-02-20T14:21:54;101416.34;;;17.46;100.00
49377;BME280;35253;34.688;33.040;2023-02-20T14:24:27;101412.66;;;17.47;100.00
49377;BME280;35253;34.688;33.040;2023-02-20T14:26:52;101408.03;;;17.26;100.00
49377;BME280;35253;34.688;33.040;2023-02-20T14:31:48;101401.75;;;17.14;100.00
49377;BME280;35253;34.688;33.040;2023-02-20T14:34:16;101403.41;;;17.04;100.00
49377;BME280;35253;34.688;33.040;2023-02-20T14:41:36;101408.59;;;16.94;100.00
49377;BME280;35253;34.688;33.040;2023-02-20T14:44:03;101414.34;;;16.90;100.00
49377;BME280;35253;34.688;33.040;2023-02-20T14:46:30;101406.25;;;16.90;100.00
49377;BME280;35253;34.688;33.040;2023-02-20T14:49:08;101403.06;;;16.85;100.00